createdAt,value
2023-03-31T00:02:24.811Z,107.97
2023-03-31T00:05:01.524Z,107.93
2023-03-31T00:07:36.273Z,108.97
2023-03-31T00:10:17.738Z,118.07
2023-03-31T00:12:52.120Z,124.80
2023-03-31T00:15:25.084Z,118.10
2023-03-31T00:18:02.284Z,124.53
2023-03-31T00:20:39.414Z,111.40
2023-03-31T00:23:17.173Z,107.70
2023-03-31T00:25:56.369Z,108.73
2023-03-31T00:28:37.242Z,128.20
2023-03-31T00:31:16.686Z,120.40
2023-03-31T00:33:53.843Z,122.27
2023-03-31T00:36:30.255Z,117.37
2023-03-31T00:39:12.554Z,116.40
2023-03-31T00:41:54.251Z,136.73
2023-03-31T00:44:31.258Z,118.33
2023-03-31T00:47:09.392Z,139.70
2023-03-31T00:49:46.507Z,132.87
2023-03-31T00:52:29.386Z,135.67
2023-03-31T00:55:13.699Z,133.87
2023-03-31T00:57:54.953Z,138.17
2023-03-31T01:00:36.474Z,137.03
2023-03-31T01:03:13.861Z,143.77
2023-03-31T01:05:57.431Z,136.40
2023-03-31T01:08:38.977Z,124.27
2023-03-31T01:11:25.686Z,124.37
2023-03-31T01:14:17.244Z,122.10
2023-03-31T01:16:55.087Z,133.33
2023-03-31T01:19:44.883Z,141.17
2023-03-31T01:23:02.409Z,127.17
2023-03-31T01:26:17.683Z,139.47
2023-03-31T01:29:03.002Z,134.20
2023-03-31T01:32:16.712Z,138.77
2023-03-31T01:35:32.167Z,142.90
2023-03-31T01:38:58.615Z,131.97
2023-03-31T01:41:51.872Z,134.77
2023-03-31T01:44:36.424Z,131.37
2023-03-31T01:47:15.293Z,128.70
2023-03-31T01:50:01.045Z,130.17
2023-03-31T01:52:47.065Z,121.20
2023-03-31T01:55:32.487Z,111.40
2023-03-31T01:58:19.352Z,121.87
2023-03-31T02:01:05.489Z,120.03
2023-03-31T02:03:56.017Z,114.33
2023-03-31T02:06:39.205Z,117.80
2023-03-31T02:09:17.545Z,108.93
2023-03-31T02:11:59.872Z,117.63
2023-03-31T02:14:40.511Z,108.53
2023-03-31T02:17:25.430Z,112.50
2023-03-31T02:20:00.967Z,113.50
2023-03-31T02:22:39.922Z,107.60
2023-03-31T02:25:20.872Z,116.20
2023-03-31T02:28:00.858Z,122.80
2023-03-31T02:30:53.583Z,116.23
2023-03-31T02:33:31.044Z,113.80
2023-03-31T02:36:11.205Z,105.97
2023-03-31T02:38:52.842Z,123.27
2023-03-31T02:41:27.809Z,117.13
2023-03-31T02:44:08.481Z,100.23
2023-03-31T02:46:51.514Z,102.70
2023-03-31T02:49:30.368Z,118.33
2023-03-31T02:52:37.380Z,106.57
2023-03-31T02:55:53.061Z,105.13
2023-03-31T02:58:47.133Z,106.70
2023-03-31T03:01:40.737Z,120.10
2023-03-31T03:05:01.967Z,104.73
2023-03-31T03:07:46.757Z,100.20
2023-03-31T03:10:43.145Z,102.80
2023-03-31T03:13:26.108Z,100.20
2023-03-31T03:16:20.569Z,115.40
2023-03-31T03:19:06.488Z,101.70
2023-03-31T03:21:54.665Z,102.73
2023-03-31T03:24:36.138Z,111.47
2023-03-31T03:27:12.307Z,111.07
2023-03-31T03:29:47.212Z,103.17
2023-03-31T03:32:20.356Z,111.30
2023-03-31T03:34:55.354Z,105.70
2023-03-31T03:37:35.314Z,102.10
2023-03-31T03:40:15.157Z,108.93
2023-03-31T03:42:52.008Z,115.30
2023-03-31T03:45:27.864Z,113.50
2023-03-31T03:48:05.003Z,108.40
2023-03-31T03:50:43.030Z,104.57
2023-03-31T03:53:22.739Z,103.17
2023-03-31T03:56:13.245Z,108.23
2023-03-31T03:58:52.239Z,106.43
2023-03-31T04:01:30.015Z,108.07
2023-03-31T04:04:05.392Z,106.30
2023-03-31T04:06:44.650Z,103.37
2023-03-31T04:09:21.330Z,97.93
2023-03-31T04:12:12.940Z,96.07
2023-03-31T04:14:53.811Z,94.20
2023-03-31T04:17:42.519Z,87.93
2023-03-31T04:20:24.139Z,94.93
2023-03-31T04:23:11.381Z,92.43
2023-03-31T04:25:56.196Z,95.43
2023-03-31T04:28:40.065Z,94.37
2023-03-31T04:31:36.343Z,85.20
2023-03-31T04:34:14.773Z,80.27
2023-03-31T04:36:54.028Z,79.47
2023-03-31T04:39:34.944Z,85.50
2023-03-31T04:42:16.441Z,89.67
2023-03-31T04:44:57.326Z,92.07
2023-03-31T04:47:38.822Z,88.40
2023-03-31T04:50:17.253Z,91.50
2023-03-31T04:52:53.823Z,98.10
2023-03-31T04:55:32.145Z,95.17
2023-03-31T04:58:10.730Z,98.67
2023-03-31T05:00:53.443Z,102.23
2023-03-31T05:03:36.036Z,107.30
2023-03-31T05:06:15.458Z,110.37
2023-03-31T05:09:14.550Z,111.00
2023-03-31T05:11:53.795Z,106.90
2023-03-31T05:14:32.057Z,103.13
2023-03-31T05:17:12.857Z,108.10
2023-03-31T05:19:51.068Z,113.20
2023-03-31T05:22:28.671Z,104.93
2023-03-31T05:25:12.228Z,94.83
2023-03-31T05:27:59.139Z,99.70
2023-03-31T05:30:52.729Z,99.60
2023-03-31T05:33:29.005Z,117.27
2023-03-31T05:36:09.548Z,108.67
2023-03-31T05:38:51.216Z,109.70
2023-03-31T05:41:33.386Z,107.07
2023-03-31T05:44:11.365Z,116.10
2023-03-31T05:46:54.090Z,109.80
2023-03-31T05:49:35.033Z,111.33
2023-03-31T05:52:13.548Z,112.53
2023-03-31T05:54:55.997Z,108.70
2023-03-31T05:57:34.213Z,111.47
2023-03-31T06:00:11.725Z,113.87
2023-03-31T06:02:52.854Z,110.33
2023-03-31T06:05:31.185Z,111.53
2023-03-31T06:08:12.756Z,121.27
2023-03-31T06:10:58.151Z,118.47
2023-03-31T06:13:38.152Z,104.63
2023-03-31T06:16:17.212Z,107.57
2023-03-31T06:18:58.278Z,100.90
2023-03-31T06:21:42.272Z,100.17
2023-03-31T06:24:22.377Z,107.30
2023-03-31T06:27:05.459Z,100.37
2023-03-31T06:29:51.606Z,94.63
2023-03-31T06:32:33.273Z,93.60
2023-03-31T06:35:13.838Z,88.83
2023-03-31T06:37:57.749Z,98.53
2023-03-31T06:40:33.069Z,91.07
2023-03-31T06:43:15.765Z,85.30
2023-03-31T06:46:04.236Z,86.00
2023-03-31T06:48:47.082Z,76.47
2023-03-31T06:51:32.783Z,76.90
2023-03-31T06:54:17.029Z,77.10
2023-03-31T06:56:52.262Z,68.50
2023-03-31T06:59:28.847Z,75.80
2023-03-31T07:02:14.960Z,77.67
2023-03-31T07:05:14.022Z,85.80
2023-03-31T07:07:56.814Z,85.17
2023-03-31T07:10:35.215Z,81.40
2023-03-31T07:13:16.275Z,91.33
2023-03-31T07:16:09.082Z,97.43
2023-03-31T07:18:52.148Z,96.57
2023-03-31T07:21:27.922Z,100.10
2023-03-31T07:24:05.132Z,99.20
2023-03-31T07:26:48.873Z,100.10
2023-03-31T07:29:25.242Z,104.87
2023-03-31T07:32:05.663Z,99.17
2023-03-31T07:34:42.799Z,103.13
2023-03-31T07:37:20.907Z,94.93
2023-03-31T07:40:02.850Z,100.83
2023-03-31T07:42:51.572Z,104.03
2023-03-31T07:45:31.304Z,103.30
2023-03-31T07:48:21.641Z,103.00
2023-03-31T07:51:03.138Z,109.67
2023-03-31T07:53:49.882Z,100.37
2023-03-31T07:56:40.521Z,98.07
2023-03-31T07:59:29.335Z,94.93
2023-03-31T08:02:14.726Z,104.80
2023-03-31T08:04:59.514Z,103.00
2023-03-31T08:07:39.085Z,98.83
2023-03-31T08:10:30.276Z,103.77
2023-03-31T08:13:16.201Z,95.10
2023-03-31T08:15:55.907Z,79.10
2023-03-31T08:18:43.319Z,86.47
2023-03-31T08:21:22.269Z,83.63
2023-03-31T08:24:12.646Z,76.20
2023-03-31T08:26:50.012Z,83.23
2023-03-31T08:29:32.051Z,81.37
2023-03-31T08:32:08.768Z,86.17
2023-03-31T08:34:54.700Z,74.47
2023-03-31T08:37:35.491Z,73.00
2023-03-31T08:40:17.448Z,82.10
2023-03-31T08:43:09.830Z,79.00
2023-03-31T08:45:56.035Z,81.80
2023-03-31T08:48:33.088Z,80.73
2023-03-31T08:51:12.493Z,79.07
2023-03-31T08:53:57.596Z,79.37
2023-03-31T08:56:34.278Z,75.87
2023-03-31T08:59:25.076Z,73.53
2023-03-31T09:02:25.243Z,79.70
2023-03-31T09:05:23.908Z,75.97
2023-03-31T09:08:11.262Z,75.00
2023-03-31T09:11:00.897Z,72.47
2023-03-31T09:14:03.071Z,76.43
2023-03-31T09:16:45.959Z,76.80
2023-03-31T09:19:31.670Z,68.83
2023-03-31T09:22:08.602Z,71.60
2023-03-31T09:24:53.495Z,67.70
2023-03-31T09:27:37.069Z,68.40
2023-03-31T09:30:23.746Z,68.20
2023-03-31T09:33:07.382Z,68.20
2023-03-31T09:35:57.036Z,73.77
2023-03-31T09:38:39.090Z,69.33
2023-03-31T09:41:22.091Z,66.13
2023-03-31T09:44:07.499Z,54.97
2023-03-31T09:46:45.974Z,63.07
2023-03-31T09:49:27.032Z,62.93
2023-03-31T09:52:15.506Z,58.77
2023-03-31T09:55:07.541Z,54.33
2023-03-31T09:57:49.703Z,60.53
2023-03-31T10:00:27.467Z,55.60
2023-03-31T10:03:11.240Z,58.70
2023-03-31T10:06:12.535Z,57.60
2023-03-31T10:08:57.507Z,50.80
2023-03-31T10:11:46.641Z,62.83
2023-03-31T10:14:39.688Z,55.73
2023-03-31T10:17:24.877Z,57.90
2023-03-31T10:20:08.830Z,57.27
2023-03-31T10:22:51.152Z,51.43
2023-03-31T10:25:42.408Z,60.63
2023-03-31T10:28:24.695Z,52.37
2023-03-31T10:31:03.276Z,52.27
2023-03-31T10:33:53.143Z,55.70
2023-03-31T10:36:33.248Z,55.23
2023-03-31T10:39:12.904Z,53.07
2023-03-31T10:41:54.599Z,54.10
2023-03-31T10:44:42.446Z,51.37
2023-03-31T10:47:42.985Z,56.80
2023-03-31T10:50:39.411Z,63.00
2023-03-31T10:53:21.357Z,59.53
2023-03-31T10:56:19.966Z,54.00
2023-03-31T10:59:24.129Z,69.67
2023-03-31T11:02:40.259Z,56.33
2023-03-31T11:05:35.986Z,58.80
2023-03-31T11:08:52.092Z,54.00
2023-03-31T11:11:55.560Z,47.07
2023-03-31T11:14:59.103Z,52.67
2023-03-31T11:17:54.571Z,54.23
2023-03-31T11:20:42.339Z,51.57
2023-03-31T11:23:33.142Z,51.90
2023-03-31T11:26:12.359Z,45.33
2023-03-31T11:29:23.729Z,53.70
2023-03-31T11:32:21.872Z,45.93
2023-03-31T11:35:22.845Z,49.53
2023-03-31T11:38:47.670Z,53.83
2023-03-31T11:41:26.744Z,49.77
2023-03-31T11:44:07.870Z,49.20
2023-03-31T11:46:52.035Z,53.37
2023-03-31T11:49:41.143Z,48.30
2023-03-31T11:52:40.898Z,53.03
2023-03-31T11:55:29.182Z,49.83
2023-03-31T11:58:17.670Z,50.60
2023-03-31T12:00:56.586Z,53.73
2023-03-31T12:03:44.158Z,58.87
2023-03-31T12:06:38.406Z,46.97
2023-03-31T12:09:41.590Z,51.40
2023-03-31T12:12:48.629Z,59.63
2023-03-31T12:15:32.348Z,51.20
2023-03-31T12:18:18.933Z,50.47
2023-03-31T12:21:07.458Z,54.60
2023-03-31T12:23:54.312Z,49.50
2023-03-31T12:26:50.582Z,49.43
2023-03-31T12:29:48.147Z,52.57
2023-03-31T12:32:44.538Z,51.77
2023-03-31T12:35:29.104Z,59.30
2023-03-31T12:38:26.259Z,56.80
2023-03-31T12:41:14.771Z,58.03
2023-03-31T12:44:30.311Z,52.77
2023-03-31T12:47:48.972Z,52.33
2023-03-31T12:50:49.446Z,51.30
2023-03-31T12:53:39.328Z,58.57
2023-03-31T12:56:21.544Z,52.80
2023-03-31T12:59:27.115Z,53.93
2023-03-31T13:02:31.931Z,53.97
2023-03-31T13:05:51.789Z,46.37
2023-03-31T13:09:16.352Z,50.83
2023-03-31T13:12:25.846Z,50.90
2023-03-31T13:15:35.501Z,56.73
2023-03-31T13:18:33.800Z,46.33
2023-03-31T13:21:18.661Z,50.23
2023-03-31T13:27:05.399Z,50.80
2023-03-31T13:30:00.219Z,50.50
2023-03-31T13:32:43.969Z,45.57
2023-03-31T13:35:37.213Z,47.20
2023-03-31T13:38:41.720Z,50.20
2023-03-31T13:41:38.398Z,44.13
2023-03-31T13:44:53.853Z,48.53
2023-03-31T13:48:17.189Z,48.97
2023-03-31T13:51:35.099Z,53.10
2023-03-31T13:54:51.568Z,51.13
2023-03-31T13:57:56.609Z,52.77
2023-03-31T14:00:59.766Z,50.33
2023-03-31T14:04:09.887Z,47.53
2023-03-31T14:06:57.990Z,45.07
2023-03-31T14:10:04.999Z,47.63
2023-03-31T14:12:55.754Z,50.70
2023-03-31T14:15:44.638Z,47.50
2023-03-31T14:18:45.642Z,45.33
2023-03-31T14:21:45.275Z,51.50
2023-03-31T14:24:38.044Z,46.27
2023-03-31T14:27:34.170Z,46.63
2023-03-31T14:30:39.964Z,41.63
2023-03-31T14:33:34.431Z,50.77
2023-03-31T14:36:24.404Z,43.23
2023-03-31T14:39:10.671Z,45.27
2023-03-31T14:42:20.408Z,50.83
2023-03-31T14:45:04.577Z,49.93
2023-03-31T14:47:49.380Z,46.23
2023-03-31T14:50:37.672Z,46.27
2023-03-31T14:53:30.118Z,48.33
2023-03-31T14:56:24.991Z,46.67
2023-03-31T14:59:24.871Z,48.83
2023-03-31T15:02:14.049Z,49.03
2023-03-31T15:05:00.377Z,50.63
2023-03-31T15:07:45.925Z,50.20
2023-03-31T15:10:42.386Z,45.40
2023-03-31T15:13:28.794Z,51.67
2023-03-31T15:16:12.460Z,48.30
2023-03-31T15:18:52.417Z,48.63
2023-03-31T15:21:39.788Z,49.17
2023-03-31T15:24:19.911Z,45.30
2023-03-31T15:27:06.654Z,48.67
2023-03-31T15:30:03.131Z,51.60
2023-03-31T15:33:04.214Z,51.83
2023-03-31T15:35:59.671Z,51.37
2023-03-31T15:38:44.368Z,51.77
2023-03-31T15:41:28.894Z,48.50
2023-03-31T15:44:38.365Z,54.60
2023-03-31T15:47:26.916Z,51.77
2023-03-31T15:50:18.362Z,48.67
2023-03-31T15:53:05.127Z,50.93
2023-03-31T15:56:01.205Z,47.27
2023-03-31T15:59:05.240Z,46.27
2023-03-31T16:01:47.314Z,48.03
2023-03-31T16:04:34.253Z,45.13
2023-03-31T16:07:26.928Z,47.57
2023-03-31T16:10:07.285Z,45.47
2023-03-31T16:12:46.063Z,42.70
2023-03-31T16:15:38.114Z,55.63
2023-03-31T16:18:18.662Z,50.47
2023-03-31T16:21:04.070Z,45.27
2023-03-31T16:23:47.827Z,42.43
2023-03-31T16:26:27.631Z,46.97
2023-03-31T16:29:13.643Z,49.83
2023-03-31T16:32:17.579Z,48.03
2023-03-31T16:35:05.778Z,48.90
2023-03-31T16:38:02.281Z,48.63
2023-03-31T16:40:58.378Z,54.10
2023-03-31T16:43:41.040Z,48.83
2023-03-31T16:46:21.019Z,44.53
2023-03-31T16:48:56.862Z,49.53
2023-03-31T16:51:33.125Z,50.47
2023-03-31T16:54:07.400Z,49.07
2023-03-31T16:56:53.003Z,53.13
2023-03-31T16:59:31.281Z,53.40
2023-03-31T17:02:10.940Z,49.97
2023-03-31T17:04:49.519Z,48.67
2023-03-31T17:07:38.536Z,54.80
2023-03-31T17:10:28.802Z,53.53
2023-03-31T17:13:16.845Z,51.13
2023-03-31T17:19:02.935Z,48.20
2023-03-31T17:21:43.247Z,49.27
2023-03-31T17:24:20.348Z,49.43
2023-03-31T17:26:59.671Z,50.50
2023-03-31T17:29:44.074Z,47.77
2023-03-31T17:32:19.290Z,46.07
2023-03-31T17:35:01.932Z,48.47
2023-03-31T17:37:40.007Z,51.60
2023-03-31T17:40:26.702Z,50.90
2023-03-31T17:43:08.384Z,52.07
2023-03-31T17:45:46.188Z,52.50
2023-03-31T17:48:36.174Z,44.37
2023-03-31T17:51:15.511Z,49.00
2023-03-31T17:53:52.849Z,52.13
2023-03-31T17:56:28.898Z,49.77
2023-03-31T17:59:08.469Z,49.07
2023-03-31T18:01:56.895Z,52.47
2023-03-31T18:04:35.070Z,55.63
2023-03-31T18:07:13.446Z,52.43
2023-03-31T18:09:50.772Z,52.53
2023-03-31T18:12:27.719Z,55.30
2023-03-31T18:15:04.457Z,58.50
2023-03-31T18:17:46.376Z,61.37
2023-03-31T18:20:24.685Z,58.60
2023-03-31T18:22:59.794Z,62.00
2023-03-31T18:25:40.195Z,64.30
2023-03-31T18:28:18.138Z,61.70
2023-03-31T18:30:55.734Z,62.80
2023-03-31T18:33:37.179Z,70.10
2023-03-31T18:36:17.583Z,66.97
2023-03-31T18:38:52.135Z,69.80
2023-03-31T18:41:26.916Z,62.37
2023-03-31T18:44:02.375Z,66.77
2023-03-31T18:46:35.898Z,66.07
2023-03-31T18:49:13.733Z,71.50
2023-03-31T18:51:50.070Z,68.10
2023-03-31T18:54:25.527Z,74.47
2023-03-31T18:57:05.600Z,72.20
2023-03-31T18:59:40.243Z,75.63
2023-03-31T19:02:18.606Z,81.17
2023-03-31T19:04:54.223Z,73.23
2023-03-31T19:07:27.640Z,71.07
2023-03-31T19:10:01.552Z,81.03
2023-03-31T19:12:35.722Z,82.27
2023-03-31T19:15:10.372Z,85.37
2023-03-31T19:17:46.190Z,73.90
2023-03-31T19:20:21.712Z,80.57
2023-03-31T19:22:56.749Z,77.60
2023-03-31T19:25:31.737Z,73.73
2023-03-31T19:28:06.374Z,77.70
2023-03-31T19:30:40.527Z,79.60
2023-03-31T19:33:16.775Z,80.80
2023-03-31T19:35:52.684Z,96.47
2023-03-31T19:38:33.375Z,86.03
2023-03-31T19:41:08.541Z,85.20
2023-03-31T19:43:49.512Z,90.27
2023-03-31T19:46:23.688Z,86.23
2023-03-31T19:48:57.863Z,90.63
2023-03-31T19:51:33.903Z,99.37
2023-03-31T19:54:08.530Z,88.83
2023-03-31T19:56:42.885Z,83.17
2023-03-31T19:59:16.652Z,81.53
2023-03-31T20:01:52.867Z,92.03
2023-03-31T20:04:27.610Z,88.43
2023-03-31T20:07:07.049Z,88.23
2023-03-31T20:09:40.894Z,83.53
2023-03-31T20:12:13.724Z,91.47
2023-03-31T20:14:47.778Z,85.77
2023-03-31T20:17:22.314Z,89.87
2023-03-31T20:19:56.432Z,92.13
2023-03-31T20:22:32.592Z,82.83
2023-03-31T20:25:06.444Z,89.43
2023-03-31T20:27:42.234Z,94.27
2023-03-31T20:30:20.927Z,93.43
2023-03-31T20:32:55.187Z,96.53
2023-03-31T20:35:28.774Z,92.33
2023-03-31T20:38:05.628Z,94.63
2023-03-31T20:40:40.085Z,100.37
2023-03-31T20:43:14.417Z,90.83
2023-03-31T20:45:59.409Z,99.93
2023-03-31T20:48:34.231Z,91.70
2023-03-31T20:51:08.721Z,92.30
2023-03-31T20:53:45.595Z,90.87
2023-03-31T20:56:21.281Z,91.53
2023-03-31T20:58:57.536Z,90.73
2023-03-31T21:01:32.955Z,88.73
2023-03-31T21:04:07.493Z,89.50
2023-03-31T21:06:42.918Z,94.07
2023-03-31T21:09:19.807Z,88.30
2023-03-31T21:11:54.291Z,94.10
2023-03-31T21:14:29.399Z,90.07
2023-03-31T21:17:03.924Z,88.83
2023-03-31T21:19:37.014Z,90.60
2023-03-31T21:22:10.930Z,99.70
2023-03-31T21:24:45.948Z,82.40
2023-03-31T21:27:20.720Z,94.37
2023-03-31T21:29:55.075Z,94.90
2023-03-31T21:32:32.910Z,95.47
2023-03-31T21:35:07.773Z,91.20
2023-03-31T21:37:41.656Z,95.67
2023-03-31T21:40:18.226Z,88.20
2023-03-31T21:42:52.132Z,91.37
2023-03-31T21:45:26.509Z,98.13
2023-03-31T21:48:01.597Z,94.50
2023-03-31T21:50:36.892Z,94.40
2023-03-31T21:53:11.276Z,98.10
2023-03-31T21:55:46.370Z,89.90
2023-03-31T21:58:21.595Z,96.40
2023-03-31T22:00:55.528Z,102.37
2023-03-31T22:03:33.953Z,97.60
2023-03-31T22:06:10.192Z,105.90
2023-03-31T22:08:44.222Z,99.90
2023-03-31T22:11:20.580Z,98.40
2023-03-31T22:13:53.190Z,98.00
2023-03-31T22:16:28.444Z,98.50
2023-03-31T22:19:02.309Z,102.77
2023-03-31T22:21:46.191Z,95.80
2023-03-31T22:24:20.637Z,98.87
2023-03-31T22:26:56.517Z,105.73
2023-03-31T22:29:30.094Z,106.70
2023-03-31T22:32:04.155Z,103.93
2023-03-31T22:34:38.151Z,105.87
2023-03-31T22:37:11.911Z,99.97
2023-03-31T22:39:45.286Z,99.90
2023-03-31T22:42:21.157Z,109.07
2023-03-31T22:44:54.837Z,101.17
2023-03-31T22:47:29.693Z,108.47
2023-03-31T22:50:04.797Z,112.27
2023-03-31T22:52:40.813Z,106.20
2023-03-31T22:55:15.614Z,98.60
2023-03-31T22:57:50.380Z,103.97
2023-03-31T23:00:24.985Z,100.30
2023-03-31T23:02:59.610Z,103.07
2023-03-31T23:05:34.051Z,104.13
2023-03-31T23:08:08.291Z,95.67
2023-03-31T23:10:42.637Z,99.87
2023-03-31T23:13:20.168Z,105.50
2023-03-31T23:15:57.635Z,101.03
2023-03-31T23:18:34.331Z,108.50
2023-03-31T23:21:12.978Z,107.63
2023-03-31T23:23:48.368Z,100.13
2023-03-31T23:26:24.644Z,101.03
2023-03-31T23:29:02.040Z,97.93
2023-03-31T23:31:36.926Z,94.80
2023-03-31T23:34:17.055Z,94.73
2023-03-31T23:36:54.104Z,103.43
2023-03-31T23:39:27.701Z,110.43
2023-03-31T23:42:00.941Z,102.53
2023-03-31T23:44:40.998Z,100.00
2023-03-31T23:47:15.954Z,108.67
2023-03-31T23:49:50.066Z,99.77
2023-03-31T23:52:26.449Z,99.63
2023-03-31T23:55:09.207Z,102.03
2023-03-31T23:57:42.579Z,97.63
